• Join FlightAware (Why Join?)
  • Login
  • US Flag 
01:15AM EDT


 

Airport Tracker/Info


-or-


 

Live Flight TrackerFlight Track Log ✈ EJA941 ✈ 13-Jan-2014 ✈ KSTL - KSDF

Flight Track Log - Related Links

Times and Time Zones

All times are in EST time to prevent confusion due to time zone crossing. See the EJA941 flight status page for this flight to view local times or setup timezone preferences in your user account.

Time Position Orientation Groundspeed Altitude Reporting Facility
EST Latitude Longitude Course Direction KTS MPH feet Rate Location/Type
08:58AM 38.7914 -90.3892 93° East 211 243 4,100  Level Kansas City Center
08:59AM 38.8514 -90.3456 30° Northeast 285 328 9,500 4,320 Climbing Kansas City Center
09:00AM 38.8164 -90.2344 112° Southeast 336 387 13,100 3,540 Climbing Kansas City Center
09:01AM 38.7753 -90.1206 115° Southeast 379 436 16,700 3,720 Climbing Kansas City Center
09:02AM 38.7206 -89.9706 115° Southeast 407 468 20,900 2,040 Climbing Kansas City Center
09:03AM 38.6734 -89.6633 93° East  Level Estimated
09:03AM 38.6667 -89.8225 115° Southeast 447 514 21,000  Level Kansas City Center
09:04AM 38.6086 -89.6658 115° Southeast 480 552 21,000  Level Kansas City Center
09:05AM 38.5511 -89.5103 115° Southeast 484 557 21,000  Level Kansas City Center
09:06AM 38.4942 -89.3589 116° Southeast 475 547 21,000  Level Kansas City Center
09:07AM 38.4297 -89.1747 114° Southeast 475 547 21,000  Level Kansas City Center
09:08AM 38.4106 -89.0011 98° East 495 570 21,000  Level Kansas City Center
09:09AM 38.4050 -88.8294 92° East 487 560 21,000  Level Kansas City Center
09:10AM 38.3964 -88.6436 93° East 493 567 21,000  Level Kansas City Center
09:11AM 38.3889 -88.4675 93° East 496 571 21,000  Level Kansas City Center
09:12AM 38.3806 -88.2914 93° East 498 573 21,000  Level Kansas City Center
09:13AM 38.3725 -88.1158 93° East 497 572 21,000 -480 Level Indianapolis Center
09:14AM 38.3633 -87.9389 94° East 498 573 20,000 -1,200 Descending Indianapolis Center
09:15AM 38.3531 -87.7264 93° East 499 574 18,600 -1,200 Descending Indianapolis Center
09:16AM 38.3433 -87.5517 94° East 493 567 17,600 -960 Descending Indianapolis Center
09:17AM 38.3339 -87.3808 94° East 485 558 16,700 -900 Descending Indianapolis Center
09:18AM 38.3197 -87.2111 96° East 480 552 15,800 -900 Descending Indianapolis Center
09:19AM 38.2958 -87.0311 100° East 473 544 14,900 -720 Descending Indianapolis Center
09:20AM 38.2753 -86.8647 99° East 471 542 14,400 -660 Descending Indianapolis Center
09:21AM 38.2544 -86.7028 99° East 465 535 13,600 -1,440 Descending Indianapolis Center
09:22AM 38.2408 -86.5478 96° East 442 509 11,500 -1,560 Descending Indianapolis Center
09:23AM 38.2547 -86.4164 82° East 381 438 10,400 -1,380 Descending Indianapolis Center
09:24AM 38.2794 -86.3003 75° East 345 397 8,700 -1,680 Descending Indianapolis Center
09:25AM 38.3014 -86.1894 76° East 330 380 7,000 -1,680 Descending Indianapolis Center
09:26AM 38.3214 -86.0853 76° East 311 358 5,300 -1,500 Descending Indianapolis Center
09:27AM 38.3453 -85.9625 76° East 302 348 4,000 -1,140 Descending Indianapolis Center
09:28AM 38.3644 -85.8622 76° East 296 341 3,000 -540 Descending Indianapolis Center
09:29AM 38.3492 -85.7872 105° East 261 300 3,000 -60 Level Indianapolis Center
09:31AM 38.3072 -85.7739 166° South 192 221 2,900 -180 Descending Indianapolis Center
09:32AM 38.2703 -85.7581 161° South 178 205 2,700 -600 Descending Indianapolis Center
09:34AM 38.2000 -85.7333 122° Southeast 111 128 800 -780 Descending Louisville TRACON